Messwerte Wetterstation Kleiner Feldberg/Taunus 822m (Hessen)

Aktuelle Messwerte

Temperatur und Niederschlag
Taupunkt, Temperatur und Luftfeuchtigkeit

Anzeige

Windrichtung und Windböen
Luftdruck
Datum Temperatur °C Niederschlag l/m² (10 min) Taupunkt °C Rel. Feuchte % Windböen km/h Windrichtung Luftdruck (hPa)
20.04 - 07:50 Uhr - 0.0 - - 29 350 -
20.04 - 07:40 Uhr - 0.0 - - 32 350 -
20.04 - 07:30 Uhr - 0.0 - - 28 360 -
20.04 - 07:20 Uhr 0.9 0.0 0.7 99 23 360 922
20.04 - 07:10 Uhr 0.8 0.0 0.6 99 22 330 922
20.04 - 07:00 Uhr 0.8 0.0 0.7 99 20 350 922
20.04 - 06:50 Uhr 0.7 0.0 0.5 99 21 340 922
20.04 - 06:40 Uhr 0.6 0.0 0.5 99 23 350 922
20.04 - 06:30 Uhr 0.7 0.0 0.5 99 24 350 922
20.04 - 06:20 Uhr 0.8 0.0 0.7 99 21 350 922
20.04 - 06:10 Uhr 0.9 0.0 0.9 100 18 350 922
20.04 - 06:00 Uhr 1.0 0.0 0.9 99 21 330 922
20.04 - 05:50 Uhr 1.0 0.0 0.9 99 22 350 922
20.04 - 05:40 Uhr 1.1 0.0 1.0 99 21 340 922
20.04 - 05:30 Uhr 1.2 0.0 1.1 99 21 10 922
20.04 - 05:20 Uhr 1.0 0.0 0.9 99 18 340 922
20.04 - 05:10 Uhr 0.9 0.0 0.7 99 18 340 922
20.04 - 05:00 Uhr 1.0 0.0 0.6 97 23 340 922
20.04 - 04:50 Uhr 1.2 0.0 0.5 95 22 350 922
20.04 - 04:40 Uhr 1.3 0.0 0.5 94 23 350 922
20.04 - 04:30 Uhr 1.5 0.0 0.7 94 24 340 922
20.04 - 04:20 Uhr 1.6 0.0 0.6 93 24 360 922
20.04 - 04:10 Uhr 1.8 0.0 0.8 93 26 350 922
20.04 - 04:00 Uhr 1.7 0.0 0.8 94 22 350 922
20.04 - 03:50 Uhr 1.6 0.0 0.8 94 20 350 922
20.04 - 03:40 Uhr 1.7 0.0 0.9 94 24 350 922
20.04 - 03:30 Uhr 1.8 0.0 1.0 94 20 340 922
20.04 - 03:20 Uhr 1.8 0.0 1.2 96 22 340 922
20.04 - 03:10 Uhr 1.8 0.0 1.4 97 22 350 923
20.04 - 03:00 Uhr 1.8 0.0 1.6 98 19 340 923
20.04 - 02:50 Uhr 1.7 0.0 1.4 98 18 340 923
20.04 - 02:40 Uhr 1.8 0.0 1.5 98 20 10 923
20.04 - 02:30 Uhr 1.9 0.0 1.5 97 21 350 923
20.04 - 02:20 Uhr 1.9 0.0 1.3 96 18 340 923
20.04 - 02:10 Uhr 2.1 0.0 1.4 95 18 330 923
20.04 - 02:00 Uhr 2.3 0.0 1.4 94 22 10 923
20.04 - 01:50 Uhr 2.4 0.0 1.2 92 21 340 923
20.04 - 01:40 Uhr 2.7 0.0 1.1 89 21 340 923
20.04 - 01:30 Uhr 2.9 0.0 0.8 86 24 330 923
20.04 - 01:20 Uhr 2.9 0.0 0.7 86 23 340 923
20.04 - 01:10 Uhr 3.2 0.0 0.8 84 23 340 923
20.04 - 01:00 Uhr 3.0 0.0 1.0 86 22 330 923
20.04 - 00:50 Uhr 3.0 0.0 1.1 88 17 350 923
20.04 - 00:40 Uhr 3.1 0.0 1.3 88 24 360 923
20.04 - 00:30 Uhr 3.1 0.0 1.3 88 24 350 923
20.04 - 00:20 Uhr 3.3 0.0 1.5 88 27 340 923
20.04 - 00:10 Uhr 3.3 0.0 1.7 89 28 350 923
20.04 - 00:00 Uhr 3.4 0.0 1.9 90 27 360 923
19.04 - 23:50 Uhr 3.3 0.0 2.0 91 23 360 923
19.04 - 23:40 Uhr 3.4 0.0 2.3 92 20 350 924
19.04 - 23:30 Uhr 3.4 0.0 2.3 93 19 20 924
19.04 - 23:20 Uhr 3.6 0.0 2.4 92 20 350 924
19.04 - 23:10 Uhr 3.8 0.0 2.6 92 14 350 924
19.04 - 23:00 Uhr 3.8 0.0 2.7 93 13 340 924
19.04 - 22:50 Uhr 3.5 0.0 2.6 94 13 350 924
19.04 - 22:40 Uhr 3.6 0.0 2.6 93 16 340 924
19.04 - 22:30 Uhr 3.5 0.0 2.7 94 14 350 924
19.04 - 22:20 Uhr 3.5 0.0 2.7 94 14 340 924
19.04 - 22:10 Uhr 3.6 0.0 2.6 93 17 340 924
19.04 - 22:00 Uhr 3.7 0.0 2.6 93 16 330 924
19.04 - 21:50 Uhr 3.8 0.0 2.8 93 14 340 924
19.04 - 21:40 Uhr 3.6 0.0 2.7 94 14 340 924
19.04 - 21:30 Uhr 3.8 0.0 2.7 93 14 350 924
19.04 - 21:20 Uhr 3.7 0.0 2.7 93 17 350 924
19.04 - 21:10 Uhr 3.8 0.0 2.7 92 22 340 924
19.04 - 21:00 Uhr 3.8 0.0 2.7 92 19 350 924
19.04 - 20:50 Uhr 3.9 0.0 2.7 92 19 310 923
19.04 - 20:40 Uhr 4.0 0.0 2.8 92 19 350 923
19.04 - 20:30 Uhr 3.9 0.0 2.6 91 17 340 923
19.04 - 20:20 Uhr 3.8 0.0 2.4 91 17 320 923
19.04 - 20:10 Uhr 4.2 0.0 2.4 88 15 330 924
19.04 - 20:00 Uhr 4.5 0.0 2.4 87 18 330 923
19.04 - 19:50 Uhr 4.9 0.0 2.7 86 21 320 923
19.04 - 19:40 Uhr 5.0 0.0 2.8 86 19 310 923
19.04 - 19:30 Uhr 4.9 0.0 2.5 85 18 330 923
19.04 - 19:20 Uhr 5.2 0.0 2.9 85 18 300 923
19.04 - 19:10 Uhr 5.8 0.0 3.1 83 19 300 923
19.04 - 19:00 Uhr 5.8 0.0 3.0 82 28 310 923
19.04 - 18:50 Uhr 5.9 0.0 2.9 81 28 340 923
19.04 - 18:40 Uhr 6.5 0.0 3.1 79 24 360 923
19.04 - 18:30 Uhr 6.2 0.0 3.2 81 25 310 923
19.04 - 18:20 Uhr 5.2 0.1 3.1 86 24 350 923
19.04 - 18:10 Uhr 5.6 0.0 2.9 83 30 330 923
19.04 - 18:00 Uhr 6.9 0.0 2.7 75 26 310 923
19.04 - 17:50 Uhr 7.1 0.0 2.9 74 32 320 923
19.04 - 17:40 Uhr 6.6 0.0 2.7 76 27 320 923
19.04 - 17:30 Uhr 6.4 0.0 2.6 77 31 310 923
19.04 - 17:20 Uhr 6.9 0.0 2.7 75 31 340 923
19.04 - 17:10 Uhr 7.5 0.0 3.1 74 32 320 923
19.04 - 17:00 Uhr 7.5 0.0 3.3 75 29 290 923
19.04 - 16:50 Uhr 6.1 0.0 3.2 82 23 310 923
19.04 - 16:40 Uhr 5.8 0.0 2.7 80 31 340 923
19.04 - 16:30 Uhr 6.2 0.0 2.3 76 32 320 923
19.04 - 16:20 Uhr 7.1 0.0 2.1 70 28 300 923
19.04 - 16:10 Uhr 7.5 0.0 1.5 66 34 330 923
19.04 - 16:00 Uhr 8.0 0.0 1.1 62 32 300 923
19.04 - 15:50 Uhr 9.8 0.0 2.6 61 23 280 923
19.04 - 15:40 Uhr 9.0 0.0 1.7 60 31 290 923
19.04 - 15:30 Uhr 9.5 0.0 2.5 62 27 350 923
19.04 - 15:20 Uhr 9.3 0.0 2.3 62 23 350 923
19.04 - 15:10 Uhr 7.6 0.0 0.5 61 27 320 923
19.04 - 15:00 Uhr 7.7 0.0 1.1 63 22 20 923
19.04 - 14:50 Uhr 7.2 0.0 0.5 62 25 360 923
19.04 - 14:40 Uhr 7.5 0.0 1.3 65 21 300 924
19.04 - 14:30 Uhr 8.6 0.0 1.9 63 27 330 923
19.04 - 14:20 Uhr 7.8 0.0 2.7 70 33 360 923
19.04 - 14:10 Uhr 7.3 0.0 1.8 68 32 360 923
19.04 - 14:00 Uhr 7.7 0.0 3.5 75 24 310 923
19.04 - 13:50 Uhr 6.3 0.0 2.3 76 27 340 923
19.04 - 13:40 Uhr 8.0 0.0 4.6 79 27 340 923
19.04 - 13:30 Uhr 6.9 0.0 5.3 90 27 320 923
19.04 - 13:20 Uhr 5.2 0.0 3.3 87 25 310 923
19.04 - 13:10 Uhr 6.1 0.0 3.0 80 26 300 923
19.04 - 13:00 Uhr 5.7 0.0 3.0 83 27 310 923
19.04 - 12:50 Uhr 5.5 0.0 3.3 85 28 340 923
19.04 - 12:40 Uhr 6.8 0.0 4.2 83 42 350 923
19.04 - 12:30 Uhr 7.2 0.0 5.2 87 34 300 923
19.04 - 12:20 Uhr 6.6 0.0 4.8 88 37 350 923
19.04 - 12:10 Uhr 6.2 0.0 4.9 91 32 330 923
19.04 - 12:00 Uhr 5.6 0.0 4.7 94 34 350 923
19.04 - 11:50 Uhr 5.9 0.0 5.2 95 31 360 923
19.04 - 11:40 Uhr 5.5 0.0 4.8 95 31 330 923
19.04 - 11:30 Uhr 4.6 0.0 3.9 95 31 330 923
19.04 - 11:20 Uhr 5.1 0.0 4.7 97 29 330 923
19.04 - 11:10 Uhr 4.7 0.0 4.3 97 31 340 922
19.04 - 11:00 Uhr 4.8 0.0 4.6 99 29 350 922
19.04 - 10:50 Uhr 4.4 0.0 4.3 99 35 350 922
19.04 - 10:40 Uhr 4.5 0.1 4.5 100 37 360 922
19.04 - 10:30 Uhr 4.5 0.1 4.4 100 30 350 922
19.04 - 10:20 Uhr 4.8 0.1 4.7 100 36 340 922
19.04 - 10:10 Uhr 5.4 0.0 5.4 100 30 320 922
19.04 - 10:00 Uhr 5.5 0.3 5.5 100 26 320 922
19.04 - 09:50 Uhr 5.6 0.1 5.6 100 25 300 922
19.04 - 09:40 Uhr 5.6 0.3 5.6 100 23 20 921
19.04 - 09:30 Uhr 5.5 0.0 5.5 100 26 340 921
19.04 - 09:20 Uhr 6.0 0.0 6.0 100 28 320 921
19.04 - 09:10 Uhr 6.0 0.0 6.0 100 30 330 921
19.04 - 09:00 Uhr 5.9 0.0 5.9 100 31 330 921
19.04 - 08:50 Uhr 6.0 0.0 6.0 100 29 320 921
19.04 - 08:40 Uhr 6.0 0.0 6.0 100 27 310 921
19.04 - 08:30 Uhr 5.9 0.0 5.9 100 27 320 921
19.04 - 08:20 Uhr 5.7 0.0 5.7 100 30 300 921
19.04 - 08:10 Uhr 5.4 0.0 5.4 100 29 350 921
19.04 - 08:00 Uhr 5.4 0.0 5.4 100 24 340 921

Daten: Quelle DWD